Time;durP1;ratioP1;P1;durP2;ratioP2;P2;SDS_P1;SDS_P2;PMS_P1;PMS_P2;Temp;Humidity;BMP_temperature;BMP_pressure;BME280_temperature;BME280_humidity;BME280_pressure;Samples;Min_cycle;Max_cycle;Signal;HPM_P1;HPM_P2
2022/05/04 00:01:43;;;;;;;6.80;4.20;;;;;;;17.56;44.82;93278.91;4974660;28;20046;-82
2022/05/04 00:04:08;;;;;;;4.38;3.58;;;;;;;17.58;44.37;93276.44;4989750;28;20045;-83
2022/05/04 00:06:34;;;;;;;5.25;3.63;;;;;;;17.56;44.23;93270.72;4990730;28;20038;-82
2022/05/04 00:08:59;;;;;;;5.90;4.32;;;;;;;17.56;44.49;93268.72;4973433;28;20034;-83
2022/05/04 00:11:25;;;;;;;7.43;4.30;;;;;;;17.57;44.33;93264.00;4970635;28;20026;-83
2022/05/04 00:13:50;;;;;;;5.60;4.35;;;;;;;17.55;44.63;93256.31;5000693;28;20044;-83
2022/05/04 00:16:15;;;;;;;6.05;4.30;;;;;;;17.55;44.63;93245.38;4974098;28;20041;-83
2022/05/04 00:18:41;;;;;;;3.95;3.42;;;;;;;17.54;45.07;93243.19;4989976;28;20045;-83
2022/05/04 00:21:07;;;;;;;4.85;4.18;;;;;;;17.52;44.43;93243.69;5005322;28;20077;-85
2022/05/04 00:23:33;;;;;;;4.32;3.80;;;;;;;17.52;44.82;93254.63;4990742;28;20086;-83
2022/05/04 00:25:58;;;;;;;4.50;4.03;;;;;;;17.55;44.71;93256.31;4990316;28;20038;-82
2022/05/04 00:28:24;;;;;;;6.03;4.00;;;;;;;17.53;44.92;93260.84;4989814;28;20045;-83
2022/05/04 00:30:49;;;;;;;8.63;4.10;;;;;;;17.53;44.98;93260.84;4989771;28;20046;-83
2022/05/04 00:33:14;;;;;;;3.85;3.40;;;;;;;17.53;44.70;93271.75;4989410;28;20042;-82
2022/05/04 00:35:40;;;;;;;4.40;4.00;;;;;;;17.55;45.02;93269.25;4990508;28;20034;-83
2022/05/04 00:38:05;;;;;;;5.72;4.05;;;;;;;17.55;45.04;93274.72;5007870;28;20045;-82
2022/05/04 00:40:31;;;;;;;6.00;4.20;;;;;;;17.52;45.26;93287.41;5026761;28;20508;-82
2022/05/04 00:42:56;;;;;;;5.13;4.22;;;;;;;17.53;44.95;93290.91;5010136;28;20045;-83
2022/05/04 00:45:22;;;;;;;4.72;4.22;;;;;;;17.54;45.07;93298.56;5006290;28;20325;-82
2022/05/04 00:47:47;;;;;;;4.55;4.10;;;;;;;17.53;45.20;93299.84;4973788;28;20053;-83
2022/05/04 00:50:12;;;;;;;5.35;3.80;;;;;;;17.53;44.73;93301.81;4989626;28;20041;-83
2022/05/04 00:52:40;;;;;;;4.97;4.03;;;;;;;17.53;44.71;93313.50;4974030;28;20060;-82
2022/05/04 00:55:06;;;;;;;5.30;4.25;;;;;;;17.52;45.06;93308.53;4973813;28;20049;-83
2022/05/04 01:00:17;;;;;;;4.78;4.10;;;;;;;17.52;44.97;93311.28;5004176;28;20522;-82
2022/05/04 01:02:43;;;;;;;6.70;4.43;;;;;;;17.52;44.82;93314.75;4989371;28;20030;-83
2022/05/04 01:05:11;;;;;;;4.88;3.90;;;;;;;17.52;45.12;93314.00;4989854;28;20045;-82
2022/05/04 01:07:39;;;;;;;5.38;4.20;;;;;;;17.51;45.37;93305.06;4974554;28;20037;-83
2022/05/04 01:10:05;;;;;;;5.13;4.18;;;;;;;17.52;45.18;93303.06;4972842;28;20058;-83
2022/05/04 01:12:31;;;;;;;5.03;4.25;;;;;;;17.50;44.86;93303.59;5007902;28;20034;-83
2022/05/04 01:14:57;;;;;;;4.20;3.80;;;;;;;17.50;45.12;93306.31;4990686;28;20042;-84
2022/05/04 01:17:23;;;;;;;4.85;4.03;;;;;;;17.50;45.05;93298.13;4988808;28;20494;-83
2022/05/04 01:19:49;;;;;;;4.80;3.90;;;;;;;17.50;45.24;93300.84;5029583;28;20132;-83
2022/05/04 01:22:14;;;;;;;4.80;3.90;;;;;;;17.50;45.18;93311.03;4995464;28;20049;-83
2022/05/04 01:24:39;;;;;;;5.80;4.30;;;;;;;17.50;44.77;93316.50;5006477;28;20408;-83
2022/05/04 01:27:11;;;;;;;4.68;4.15;;;;;;;17.50;45.01;93305.56;4989582;28;20496;-83
2022/05/04 01:29:36;;;;;;;4.47;3.80;;;;;;;17.50;44.87;93306.31;4990124;28;20121;-83
2022/05/04 01:32:02;;;;;;;5.88;4.22;;;;;;;17.48;45.12;93301.34;4989169;28;20038;-86
2022/05/04 01:34:28;;;;;;;6.32;4.10;;;;;;;17.49;45.26;93299.38;4995497;28;20046;-83
2022/05/04 01:36:53;;;;;;;4.70;4.07;;;;;;;17.46;45.08;93309.31;5033697;28;20151;-83
2022/05/04 01:39:18;;;;;;;4.78;4.03;;;;;;;17.47;45.21;93312.78;5012612;28;20129;-83
2022/05/04 01:42:02;;;;;;;4.93;4.40;;;;;;;17.48;45.45;93312.28;5012485;28;20037;-83
2022/05/04 01:44:28;;;;;;;5.43;3.75;;;;;;;17.48;45.52;93312.28;5015094;28;20049;-84
2022/05/04 01:46:53;;;;;;;4.47;3.53;;;;;;;17.47;45.73;93304.59;4999606;28;20515;-82
2022/05/04 01:49:18;;;;;;;6.28;4.18;;;;;;;17.46;45.45;93303.84;5008387;28;20447;-84
2022/05/04 01:51:44;;;;;;;4.40;3.70;;;;;;;17.48;45.27;93308.81;4992468;28;20515;-83
2022/05/04 01:54:09;;;;;;;6.28;3.80;;;;;;;17.48;45.55;93308.81;4975993;28;20060;-83
2022/05/04 01:56:35;;;;;;;5.95;4.10;;;;;;;17.46;45.53;93306.59;4976407;28;20488;-83
2022/05/04 01:59:00;;;;;;;4.07;3.67;;;;;;;17.47;45.67;93304.59;5008703;28;20563;-82
2022/05/04 02:01:26;;;;;;;4.72;3.80;;;;;;;17.47;45.86;93304.59;4991367;28;20044;-83
2022/05/04 02:03:51;;;;;;;5.20;4.63;;;;;;;17.46;45.91;93306.59;5008763;28;20042;-83
2022/05/04 02:06:16;;;;;;;5.97;4.22;;;;;;;17.45;45.40;93302.38;4991758;28;20071;-82
2022/05/04 02:08:42;;;;;;;4.53;3.55;;;;;;;17.46;45.71;93297.63;4991625;28;20038;-84
2022/05/04 02:11:07;;;;;;;5.68;3.83;;;;;;;17.45;45.81;93299.63;4990728;28;20375;-83
2022/05/04 02:13:33;;;;;;;5.35;4.43;;;;;;;17.47;45.52;93293.66;4991998;28;20076;-83
2022/05/04 02:15:58;;;;;;;4.38;3.75;;;;;;;17.45;45.66;93301.63;4991905;28;20041;-82
2022/05/04 02:18:24;;;;;;;5.07;3.67;;;;;;;17.43;45.74;93293.19;4992039;28;20046;-83
2022/05/04 02:20:49;;;;;;;5.18;3.92;;;;;;;17.45;45.60;93291.44;4991547;28;20152;-82
2022/05/04 02:23:15;;;;;;;4.85;4.28;;;;;;;17.44;45.60;93292.69;4990995;28;20041;-82
2022/05/04 02:25:40;;;;;;;5.20;4.55;;;;;;;17.44;45.62;93292.69;4976383;28;20033;-83
2022/05/04 02:28:05;;;;;;;5.18;3.65;;;;;;;17.45;45.36;93290.69;5007360;28;20041;-82
2022/05/04 02:30:31;;;;;;;5.18;4.10;;;;;;;17.42;45.86;93295.19;4991557;28;20034;-82
2022/05/04 02:32:56;;;;;;;5.40;4.55;;;;;;;17.44;45.82;93286.47;4975859;28;20242;-82
2022/05/04 02:38:06;;;;;;;4.75;3.83;;;;;;;17.43;45.95;93304.13;5025114;28;20090;-82
2022/05/04 02:40:32;;;;;;;4.55;4.05;;;;;;;17.44;45.66;93300.88;5028189;28;20033;-82
2022/05/04 02:42:57;;;;;;;5.75;4.80;;;;;;;17.42;45.34;93306.09;4994984;28;20450;-83
2022/05/04 02:45:23;;;;;;;5.85;4.93;;;;;;;17.42;45.56;93302.63;4994862;28;20041;-82
2022/05/04 02:47:48;;;;;;;3.60;3.30;;;;;;;17.43;45.83;93304.13;4978069;28;20050;-82
2022/05/04 02:50:14;;;;;;;6.40;3.55;;;;;;;17.46;45.49;93305.84;4974862;28;20038;-83
2022/05/04 02:52:39;;;;;;;4.38;3.90;;;;;;;17.42;45.96;93303.38;4975037;28;20353;-82
2022/05/04 02:55:05;;;;;;;5.68;4.22;;;;;;;17.43;45.90;93299.38;4974917;28;20347;-82
2022/05/04 02:57:31;;;;;;;6.57;4.30;;;;;;;17.41;46.09;93298.41;4991682;28;20679;-83
2022/05/04 02:59:56;;;;;;;5.30;3.75;;;;;;;17.41;46.15;93310.09;4991649;28;20042;-82
2022/05/04 03:02:28;;;;;;;6.45;4.10;;;;;;;17.41;45.70;93301.88;4990413;28;20141;-82
2022/05/04 03:04:56;;;;;;;5.70;3.67;;;;;;;17.40;46.10;93311.34;4992398;28;20163;-82
2022/05/04 03:07:22;;;;;;;4.95;3.92;;;;;;;17.41;45.70;93312.81;4975093;28;20102;-83
2022/05/04 03:09:47;;;;;;;5.50;4.32;;;;;;;17.41;46.00;93314.81;4991482;28;20042;-82
2022/05/04 03:12:13;;;;;;;5.03;3.90;;;;;;;17.41;45.96;93304.63;4990302;28;20033;-82
2022/05/04 03:14:38;;;;;;;5.55;4.38;;;;;;;17.42;45.97;93310.81;4993870;28;20559;-82
2022/05/04 03:17:04;;;;;;;4.80;3.97;;;;;;;17.41;46.04;93312.81;4987680;28;20034;-83
2022/05/04 03:19:29;;;;;;;4.43;3.80;;;;;;;17.42;45.70;93317.03;4988479;28;20034;-82
2022/05/04 03:21:55;;;;;;;4.47;3.80;;;;;;;17.42;45.95;93305.38;4997835;28;20034;-82
2022/05/04 03:24:20;;;;;;;4.95;4.10;;;;;;;17.41;45.93;93315.56;4973801;28;20079;-82
2022/05/04 03:26:46;;;;;;;6.03;4.55;;;;;;;17.39;45.52;93309.09;4990988;28;20407;-83
2022/05/04 03:29:11;;;;;;;5.38;3.80;;;;;;;17.39;45.65;93307.13;4974381;28;20496;-82
2022/05/04 03:31:36;;;;;;;4.40;4.00;;;;;;;17.40;46.21;93305.13;4974260;28;20423;-82
2022/05/04 03:34:02;;;;;;;4.47;3.70;;;;;;;17.40;45.66;93299.66;4974193;28;20054;-85
2022/05/04 03:36:27;;;;;;;5.82;3.92;;;;;;;17.40;45.91;93302.38;4979382;28;20045;-82
2022/05/04 03:38:53;;;;;;;5.70;4.72;;;;;;;17.41;46.04;93304.63;5009764;28;20037;-82
2022/05/04 03:41:18;;;;;;;14.85;4.68;;;;;;;17.41;46.16;93307.34;5009440;28;20045;-82
2022/05/04 03:43:44;;;;;;;63.17;43.28;;;;;;;17.44;46.04;93300.13;5010433;28;20499;-82
2022/05/04 03:46:13;;;;;;;5.95;3.90;;;;;;;17.41;46.11;93307.34;5025811;28;20048;-81
2022/05/04 03:48:38;;;;;;;11.02;6.40;;;;;;;17.42;46.11;93305.38;5004341;28;20050;-82
2022/05/04 03:51:04;;;;;;;4.97;4.47;;;;;;;17.42;46.06;93303.38;4969968;28;20042;-83
2022/05/04 03:53:30;;;;;;;6.10;4.50;;;;;;;17.44;46.15;93300.88;5004144;28;20039;-84
2022/05/04 03:55:55;;;;;;;5.53;4.00;;;;;;;17.44;46.16;93303.59;4990645;28;20046;-82
2022/05/04 03:58:21;;;;;;;5.93;4.40;;;;;;;17.44;46.29;93309.06;4987034;28;20042;-83
2022/05/04 04:00:46;;;;;;;4.82;4.32;;;;;;;17.44;45.75;93317.28;4989536;28;20073;-86
2022/05/04 04:03:12;;;;;;;10.55;5.20;;;;;;;17.39;45.94;93309.84;5002841;28;20450;-84
2022/05/04 04:05:37;;;;;;;12.40;5.25;;;;;;;17.36;46.78;93301.91;5005569;28;20492;-85
2022/05/04 04:08:03;;;;;;;17.27;5.72;;;;;;;17.38;46.43;93315.81;4989541;28;20783;-85
2022/05/04 04:10:28;;;;;;;8.13;5.55;;;;;;;17.34;46.98;93309.88;4987577;28;20108;-85
2022/05/04 04:12:53;;;;;;;6.72;5.53;;;;;;;17.33;46.52;93306.41;4984617;28;20145;-85
2022/05/04 04:15:19;;;;;;;8.02;5.63;;;;;;;17.35;46.50;93308.63;4989063;28;20345;-86
2022/05/04 04:17:44;;;;;;;8.88;5.50;;;;;;;17.34;46.36;93309.88;4989668;28;20067;-85
2022/05/04 04:22:54;;;;;;;16.25;6.60;;;;;;;17.34;46.59;93320.81;4991905;28;20408;-85
2022/05/04 04:25:20;;;;;;;9.45;6.68;;;;;;;17.38;46.20;93316.56;4989813;28;20038;-85
2022/05/04 04:27:45;;;;;;;11.50;6.80;;;;;;;17.39;46.05;93315.31;4989335;28;20497;-85
2022/05/04 04:30:11;;;;;;;28.13;9.57;;;;;;;17.39;47.01;93312.59;4990473;28;20459;-90
2022/05/04 04:32:36;;;;;;;14.02;7.97;;;;;;;17.43;45.74;93315.03;5006682;28;20041;-84
2022/05/04 04:35:03;;;;;;;28.88;11.73;;;;;;;17.43;46.29;93313.06;5005346;28;20054;-85
2022/05/04 04:37:29;;;;;;;33.25;13.38;;;;;;;17.52;46.03;93320.22;5001493;28;20053;-84
2022/05/04 04:39:54;;;;;;;24.15;12.80;;;;;;;17.55;46.13;93316.44;4987166;28;20053;-87
2022/05/04 04:42:19;;;;;;;32.33;15.90;;;;;;;17.55;46.28;93318.44;4998575;28;20041;-87
2022/05/04 04:44:45;;;;;;;27.70;14.55;;;;;;;17.58;47.10;93323.63;4987743;28;20639;-87
2022/05/04 04:47:10;;;;;;;30.63;16.27;;;;;;;17.60;46.09;93328.59;4989235;28;20045;-87
2022/05/04 04:49:36;;;;;;;55.05;21.05;;;;;;;17.59;45.51;93316.91;5011286;28;20038;-91
2022/05/04 04:52:02;;;;;;;59.88;24.83;;;;;;;17.62;45.92;93326.09;4987622;28;20053;-88
2022/05/04 04:54:28;;;;;;;52.28;24.92;;;;;;;17.56;45.87;93319.91;4989905;28;20042;-88
2022/05/04 04:56:54;;;;;;;77.93;29.25;;;;;;;17.58;45.78;93318.16;5006184;28;20057;-86
2022/05/04 04:59:19;;;;;;;73.28;26.85;;;;;;;17.60;45.74;93329.34;5005088;28;20030;-88
2022/05/04 05:01:46;;;;;;;79.90;29.73;;;;;;;17.58;45.80;93326.38;4975966;28;20057;-92
2022/05/04 05:04:13;;;;;;;39.35;18.35;;;;;;;17.52;46.87;93331.16;4982913;28;20084;-89
2022/05/04 05:06:38;;;;;;;70.45;17.15;;;;;;;17.39;47.51;93330.97;4953728;28;20818;-88
2022/05/04 05:09:04;;;;;;;63.58;16.52;;;;;;;17.31;48.58;93330.03;4967755;28;20702;-87
2022/05/04 05:11:29;;;;;;;24.38;10.15;;;;;;;17.28;48.71;93329.06;4952180;28;20652;-85
2022/05/04 05:16:39;;;;;;;35.42;15.57;;;;;;;17.21;49.16;93323.38;4957529;28;20086;-87
2022/05/04 05:19:04;;;;;;;40.50;19.40;;;;;;;17.12;49.98;93325.13;4965878;28;20039;-87
2022/05/04 05:21:30;;;;;;;63.30;23.67;;;;;;;17.09;49.82;93328.91;4986274;28;20050;-88
2022/05/04 05:23:55;;;;;;;71.25;23.65;;;;;;;17.10;50.28;93333.09;4987154;28;20138;-90
2022/05/04 05:26:21;;;;;;;69.85;25.08;;;;;;;17.07;50.09;93339.59;4983889;28;20035;-89
2022/05/04 05:28:47;;;;;;;61.33;20.00;;;;;;;17.05;50.60;93330.41;4986027;28;20050;-89
2022/05/04 05:31:13;;;;;;;65.82;31.70;;;;;;;17.05;50.67;93331.16;5002832;28;20488;-91
2022/05/04 05:33:40;;;;;;;35.28;14.73;;;;;;;17.01;50.99;93338.88;4950030;28;20043;-89
2022/05/04 05:36:07;;;;;;;45.58;18.20;;;;;;;16.99;51.18;93346.81;5000734;28;20038;-89
2022/05/04 05:38:32;;;;;;;42.13;23.85;;;;;;;16.94;50.98;93342.09;4997583;28;20041;-87
2022/05/04 05:40:58;;;;;;;40.50;21.98;;;;;;;16.90;50.46;93341.63;4984831;28;20053;-91
2022/05/04 05:43:23;;;;;;;46.20;18.23;;;;;;;16.93;50.52;93345.34;4989557;28;20485;-90
2022/05/04 05:45:49;;;;;;;82.43;28.60;;;;;;;16.89;50.54;93348.31;4993203;28;20431;-89
2022/05/04 05:48:14;;;;;;;65.47;25.90;;;;;;;16.84;51.17;93343.66;4969354;28;20050;-89
2022/05/04 05:50:40;;;;;;;91.47;31.48;;;;;;;16.84;50.78;93349.13;4987980;28;20049;-86
2022/05/04 05:53:05;;;;;;;71.80;26.55;;;;;;;16.91;50.73;93353.28;5005870;28;20034;-86
2022/05/04 05:55:31;;;;;;;79.75;25.95;;;;;;;16.91;50.29;93361.47;4988684;28;20049;-88
2022/05/04 05:57:56;;;;;;;75.68;26.05;;;;;;;16.79;51.13;93358.06;4976020;28;20054;-88
2022/05/04 06:00:21;;;;;;;64.75;23.35;;;;;;;16.78;51.59;93360.03;4988442;28;20172;-87
2022/05/04 06:02:47;;;;;;;145.30;36.28;;;;;;;16.88;51.37;93359.78;4974167;28;20042;-87
2022/05/04 06:05:12;;;;;;;79.25;25.90;;;;;;;16.82;51.99;93361.78;4975195;28;20364;-88
2022/05/04 06:07:38;;;;;;;48.35;22.40;;;;;;;16.77;52.04;93361.28;4994935;28;20569;-87
2022/05/04 06:10:05;;;;;;;45.42;22.05;;;;;;;16.74;51.86;93365.00;4977842;28;20034;-88
2022/05/04 06:12:30;;;;;;;47.60;18.08;;;;;;;16.78;52.15;93372.94;4990981;28;20364;-86
2022/05/04 06:14:56;;;;;;;40.70;14.85;;;;;;;16.80;52.09;93373.19;4972672;28;20042;-89
2022/05/04 06:17:22;;;;;;;25.48;13.05;;;;;;;16.79;52.14;93369.72;4973320;28;20049;-84
2022/05/04 06:19:48;;;;;;;24.58;11.63;;;;;;;16.76;52.05;93372.72;5016248;28;20092;-88
2022/05/04 06:22:13;;;;;;;25.48;11.15;;;;;;;16.85;51.61;93372.44;4973654;28;20038;-87
2022/05/04 06:24:39;;;;;;;48.80;15.20;;;;;;;16.77;52.02;93363.28;4989895;28;20045;-86
2022/05/04 06:27:04;;;;;;;91.80;33.78;;;;;;;16.76;52.06;93376.19;4990467;28;20042;-91
2022/05/04 06:35:03;;;;;;;150.27;48.85;;;;;;;16.88;51.51;93376.91;4985576;28;20100;-87
2022/05/04 06:37:28;;;;;;;151.35;53.92;;;;;;;16.91;51.80;93375.88;5007394;28;20069;-85
2022/05/04 06:39:54;;;;;;;157.23;56.53;;;;;;;16.96;51.65;93371.66;5007904;28;20053;-88
2022/05/04 06:42:19;;;;;;;135.48;55.35;;;;;;;16.96;51.51;93375.13;4992404;28;20040;-87
2022/05/04 06:44:45;;;;;;;170.30;68.78;;;;;;;17.05;51.11;93379.56;4972905;28;20042;-85
2022/05/04 06:47:10;;;;;;;140.93;62.05;;;;;;;17.02;50.68;93375.84;5016369;28;20042;-86
2022/05/04 06:49:36;;;;;;;190.23;84.72;;;;;;;17.10;50.68;93382.25;5028843;28;20141;-88
2022/05/04 06:52:01;;;;;;;290.98;139.82;;;;;;;17.10;50.75;93365.88;5010576;28;20543;-89
2022/05/04 06:54:26;;;;;;;186.93;77.88;;;;;;;17.13;50.78;93388.69;5006854;28;20037;-87
2022/05/04 06:56:52;;;;;;;314.05;125.40;;;;;;;17.13;51.12;93389.44;5007320;28;20408;-89
2022/05/04 06:59:17;;;;;;;229.80;94.80;;;;;;;17.16;50.66;93379.50;4987465;28;20582;-87
2022/05/04 07:01:43;;;;;;;165.90;59.33;;;;;;;17.13;52.08;93383.25;4990137;28;20507;-90
2022/05/04 07:04:08;;;;;;;189.43;77.18;;;;;;;17.17;51.31;93383.72;4986369;28;20586;-86
2022/05/04 07:06:33;;;;;;;223.88;102.78;;;;;;;17.20;51.12;93380.00;4990240;28;20514;-89
2022/05/04 07:08:59;;;;;;;195.48;73.90;;;;;;;17.18;51.49;93390.69;4971673;28;20444;-91
2022/05/04 07:11:25;;;;;;;177.18;72.43;;;;;;;17.23;51.17;93384.44;5006340;28;20361;-92
2022/05/04 07:13:50;;;;;;;209.85;92.60;;;;;;;17.24;51.07;93382.47;4973438;28;20076;-89
2022/05/04 07:16:15;;;;;;;193.82;76.80;;;;;;;17.24;51.00;93385.94;4969792;28;20042;-89
2022/05/04 07:18:41;;;;;;;297.75;138.50;;;;;;;17.27;50.03;93386.94;4985140;28;20095;-90
2022/05/04 07:21:06;;;;;;;245.45;112.88;;;;;;;17.27;50.13;93387.66;4985032;28;20038;-89
2022/05/04 07:23:32;;;;;;;277.08;119.00;;;;;;;17.30;49.38;93380.47;4976595;28;20037;-88
2022/05/04 07:25:57;;;;;;;194.80;84.13;;;;;;;17.29;50.21;93381.69;4991562;28;20491;-89
2022/05/04 07:28:23;;;;;;;234.05;104.30;;;;;;;17.30;50.03;93392.13;4986541;28;20643;-88
2022/05/04 07:30:48;;;;;;;224.55;94.00;;;;;;;17.31;50.03;93387.41;4981789;28;20077;-87
2022/05/04 07:33:14;;;;;;;235.93;103.22;;;;;;;17.31;49.67;93390.88;4995369;28;20487;-91
2022/05/04 07:35:39;;;;;;;212.80;96.93;;;;;;;17.31;50.09;93387.41;4972866;28;20081;-89
2022/05/04 07:38:05;;;;;;;224.65;104.80;;;;;;;17.33;49.84;93398.56;4979188;28;20030;-87
2022/05/04 07:43:14;;;;;;;193.38;95.72;;;;;;;17.35;49.37;93396.81;4951553;28;20567;-89
2022/05/04 07:45:40;;;;;;;218.30;109.68;;;;;;;17.37;49.32;93397.03;4962350;28;20047;-86
2022/05/04 07:48:06;;;;;;;192.75;93.82;;;;;;;17.37;49.65;93405.25;4974184;28;20050;-92
2022/05/04 07:50:31;;;;;;;192.68;99.03;;;;;;;17.41;49.07;93402.25;4979841;28;20129;-86
2022/05/04 07:52:57;;;;;;;180.80;86.90;;;;;;;17.36;49.86;93403.75;4957982;28;20044;-91
2022/05/04 07:55:22;;;;;;;195.07;92.97;;;;;;;17.41;49.96;93402.25;4966812;28;20046;-89
2022/05/04 07:57:48;;;;;;;212.00;96.93;;;;;;;17.42;49.95;93401.00;4967902;28;20051;-92
2022/05/04 08:05:43;;;;;;;201.50;105.28;;;;;;;17.48;48.72;93405.22;4979069;28;20174;-87
2022/05/04 08:08:09;;;;;;;186.60;94.93;;;;;;;17.47;49.82;93405.72;4930175;28;20051;-88
2022/05/04 08:10:35;;;;;;;260.85;130.38;;;;;;;17.51;49.37;93408.91;4965165;28;20035;-91
2022/05/04 08:13:00;;;;;;;205.25;105.43;;;;;;;17.48;49.45;93402.47;4984140;28;20046;-91
2022/05/04 08:15:26;;;;;;;216.68;105.38;;;;;;;17.47;49.30;93411.91;4972708;28;20065;-88
2022/05/04 08:17:52;;;;;;;181.10;94.78;;;;;;;17.46;49.23;93406.94;4986299;28;20443;-91
2022/05/04 08:20:17;;;;;;;169.65;91.03;;;;;;;17.49;49.72;93408.69;4990487;28;20057;-88
2022/05/04 08:22:43;;;;;;;177.80;96.70;;;;;;;17.48;49.24;93418.88;4973995;28;20096;-88
2022/05/04 08:25:09;;;;;;;195.70;104.60;;;;;;;17.52;49.14;93417.88;4974361;28;20744;-87
2022/05/04 08:27:34;;;;;;;208.45;84.75;;;;;;;17.50;49.82;93429.31;4992075;28;20041;-89
2022/05/04 08:30:00;;;;;;;160.95;90.88;;;;;;;17.50;49.20;93420.34;4993060;28;20034;-87
2022/05/04 08:32:29;;;;;;;138.07;70.45;;;;;;;17.53;49.67;93427.56;4971668;28;20065;-90
2022/05/04 08:34:56;;;;;;;167.40;75.85;;;;;;;17.52;50.04;93417.88;5007384;28;20515;-88
2022/05/04 08:37:22;;;;;;;186.23;73.28;;;;;;;17.51;50.16;93433.53;5014867;28;20030;-88
2022/05/04 08:39:48;;;;;;;180.52;79.80;;;;;;;17.52;49.82;93426.81;4995012;28;20038;-87
2022/05/04 08:42:15;;;;;;;170.95;77.43;;;;;;;17.54;50.05;93434.50;4991664;28;20096;-88
2022/05/04 08:44:42;;;;;;;181.38;81.70;;;;;;;17.54;49.88;93429.75;5010836;28;20030;-88
2022/05/04 08:47:12;;;;;;;117.65;58.78;;;;;;;17.51;51.47;93433.53;4990883;28;20045;-88
2022/05/04 08:49:38;;;;;;;101.57;49.25;;;;;;;17.57;51.76;93431.47;5010082;28;20045;-88
2022/05/04 08:52:06;;;;;;;83.82;41.67;;;;;;;17.48;52.22;93429.81;4975784;28;20037;-89
2022/05/04 08:54:31;;;;;;;96.95;41.03;;;;;;;17.53;52.56;93428.28;4989158;28;20042;-89
2022/05/04 08:56:57;;;;;;;77.47;35.53;;;;;;;17.47;53.05;93431.03;4971006;28;20044;-86
2022/05/04 08:59:23;;;;;;;65.75;32.70;;;;;;;17.45;53.23;93439.00;4992966;28;20038;-87
2022/05/04 09:01:49;;;;;;;69.95;33.10;;;;;;;17.45;52.68;93435.53;4990824;28;20049;-86
2022/05/04 09:04:14;;;;;;;69.47;33.58;;;;;;;17.41;52.42;93435.78;4989602;28;20034;-89
2022/05/04 09:06:43;;;;;;;60.97;29.55;;;;;;;17.43;52.22;93435.28;5004613;28;20052;-85
2022/05/04 09:09:13;;;;;;;82.45;36.75;;;;;;;17.43;52.72;93427.09;4973911;28;20530;-88
2022/05/04 09:11:40;;;;;;;82.57;34.00;;;;;;;17.43;52.89;93429.81;4971648;28;20037;-86
2022/05/04 09:14:08;;;;;;;97.72;41.30;;;;;;;17.39;52.27;93430.06;5009611;28;20447;-89
2022/05/04 09:16:34;;;;;;;95.05;44.20;;;;;;;17.45;52.33;93421.88;4984789;28;20045;-85
2022/05/04 09:19:04;;;;;;;88.22;41.28;;;;;;;17.39;52.75;93427.34;4987550;28;20034;-88
2022/05/04 09:21:30;;;;;;;64.40;32.28;;;;;;;17.41;52.68;93422.13;4992798;28;20042;-86
2022/05/04 09:24:02;;;;;;;81.40;37.22;;;;;;;17.39;52.54;93418.41;4975053;28;20033;-91
2022/05/04 09:26:27;;;;;;;65.47;26.77;;;;;;;17.38;53.19;93425.13;4990814;28;20040;-86
2022/05/04 09:29:04;;;;;;;66.55;28.67;;;;;;;17.36;53.03;93422.13;4991067;28;20038;-91
2022/05/04 09:31:32;;;;;;;64.25;26.77;;;;;;;17.34;53.29;93408.97;4976099;28;20046;-89
2022/05/04 09:34:02;;;;;;;77.93;31.58;;;;;;;17.36;53.05;93400.28;4979523;28;20034;-86
2022/05/04 09:36:38;;;;;;;79.28;30.45;;;;;;;17.41;52.92;93397.53;5002872;28;20048;-88
2022/05/04 09:44:55;;;;;;;187.70;82.68;;;;;;;17.48;52.57;93404.47;5002134;28;20053;-87
2022/05/04 09:47:23;;;;;;;238.50;92.25;;;;;;;17.52;52.72;93402.22;4980917;28;20071;-90
2022/05/04 09:49:49;;;;;;;214.50;96.43;;;;;;;17.55;52.11;93403.16;5033133;28;20041;-90
2022/05/04 09:52:20;;;;;;;232.05;99.82;;;;;;;17.58;51.70;93396.69;4997188;28;20038;-90
2022/05/04 09:54:46;;;;;;;193.02;94.88;;;;;;;17.58;51.69;93407.63;4992946;28;20033;-90
2022/05/04 09:57:13;;;;;;;172.20;80.25;;;;;;;17.54;52.02;93396.94;5014841;28;20502;-92
2022/05/04 09:59:39;;;;;;;142.88;49.95;;;;;;;17.55;53.27;93397.69;5002448;28;20122;-91
2022/05/04 10:02:07;;;;;;;138.98;46.92;;;;;;;17.54;53.19;93396.25;4987937;28;20034;-86
2022/05/04 10:04:33;;;;;;;81.43;37.95;;;;;;;17.55;52.48;93390.25;4982354;28;20042;-87
2022/05/04 10:07:00;;;;;;;81.78;38.38;;;;;;;17.57;52.56;93392.47;5014419;28;20543;-89
2022/05/04 10:09:26;;;;;;;102.10;42.92;;;;;;;17.57;52.64;93395.19;4981657;28;20041;-86
2022/05/04 10:11:57;;;;;;;116.57;47.60;;;;;;;17.58;52.45;93385.75;4987047;28;20126;-87
2022/05/04 10:14:22;;;;;;;117.90;48.53;;;;;;;17.59;52.52;93381.78;4979894;28;20068;-86
2022/05/04 10:17:18;;;;;;;155.32;73.13;;;;;;;17.60;52.48;93389.47;4985590;28;20299;-86
2022/05/04 10:19:45;;;;;;;112.07;54.10;;;;;;;17.60;52.47;93378.53;4982590;28;20106;-87
2022/05/04 10:22:14;;;;;;;124.50;65.53;;;;;;;17.64;52.17;93381.00;5015320;28;20038;-89
2022/05/04 10:24:40;;;;;;;137.82;70.85;;;;;;;17.63;52.45;93377.53;4997395;28;20399;-86
2022/05/04 10:27:21;;;;;;;209.02;103.35;;;;;;;17.63;51.98;93369.34;5004107;23;20057;-86
2022/05/04 10:32:43;;;;;;;133.38;64.50;;;;;;;17.66;51.78;93371.09;4998517;28;20073;-86
2022/05/04 10:35:20;;;;;;;124.53;60.42;;;;;;;17.66;51.98;93364.88;4995051;28;20524;-86
2022/05/04 10:37:53;;;;;;;155.88;70.78;;;;;;;17.67;51.55;93364.38;5011739;28;20057;-86
2022/05/04 10:40:27;;;;;;;155.30;63.85;;;;;;;17.66;51.69;93357.41;5013490;28;20116;-85
2022/05/04 10:42:57;;;;;;;120.28;60.95;;;;;;;17.70;51.23;93357.16;4981181;28;20041;-86
2022/05/04 10:45:30;;;;;;;139.40;62.50;;;;;;;17.70;51.41;93354.41;4981170;28;20038;-86
2022/05/04 10:48:21;;;;;;;110.20;56.97;;;;;;;17.69;51.44;93353.66;4980360;28;20125;-87
2022/05/04 10:50:50;;;;;;;;;;;;;;;17.72;51.56;93349.19;4992178;28;20532;-87
2022/05/04 10:53:28;;;;;;;145.40;56.08;;;;;;;17.72;51.19;93346.44;5004899;28;19948;-85
2022/05/04 10:56:01;;;;;;;85.18;44.97;;;;;;;17.72;51.64;93343.72;5002700;28;20086;-89
2022/05/04 10:58:50;;;;;;;103.78;49.75;;;;;;;17.73;51.18;93345.19;4990925;28;20046;-87
2022/05/04 11:01:23;;;;;;;96.93;50.83;;;;;;;17.75;51.49;93340.69;5006976;28;20038;-92
2022/05/04 11:04:08;;;;;;;305.77;101.55;;;;;;;17.75;51.06;93351.63;4975471;28;20054;-87
2022/05/04 11:06:34;;;;;;;176.02;62.30;;;;;;;17.76;51.11;93350.38;4992997;28;20038;-88
2022/05/04 11:09:18;;;;;;;181.30;66.38;;;;;;;17.76;51.12;93342.16;4991427;28;20801;-88
2022/05/04 11:11:45;;;;;;;219.30;73.38;;;;;;;17.80;50.72;93342.66;5004976;28;20041;-86
2022/05/04 11:14:12;;;;;;;170.90;64.80;;;;;;;17.81;51.10;93335.19;4993023;28;20065;-88
2022/05/04 11:16:38;;;;;;;163.10;63.63;;;;;;;17.80;50.87;93328.22;4985110;28;20062;-90
2022/05/04 11:19:06;;;;;;;166.65;67.97;;;;;;;17.84;50.95;93336.16;4979773;28;20080;-89
2022/05/04 11:21:37;;;;;;;168.27;70.00;;;;;;;17.85;50.61;93335.66;4982426;28;20549;-88
2022/05/04 11:24:03;;;;;;;;;;;;;;;17.84;50.89;93336.16;5005118;28;20477;-90
2022/05/04 11:26:39;;;;;;;182.95;68.35;;;;;;;17.84;50.73;93333.44;4999614;28;20017;-90
2022/05/04 11:29:11;;;;;;;186.10;78.18;;;;;;;17.84;50.64;93331.44;4984483;28;20049;-87
2022/05/04 11:31:36;;;;;;;155.95;70.65;;;;;;;17.86;50.92;93334.41;4963352;28;20516;-93
2022/05/04 11:34:02;;;;;;;172.50;72.43;;;;;;;17.84;50.60;93325.97;4972923;28;20042;-89
2022/05/04 11:36:27;;;;;;;142.18;67.47;;;;;;;17.86;50.60;93330.94;4998548;28;20049;-89
2022/05/04 11:38:53;;;;;;;147.95;68.20;;;;;;;17.89;50.73;93318.97;4989884;28;20045;-89
2022/05/04 11:41:20;;;;;;;149.23;66.38;;;;;;;17.92;50.14;93320.69;4991835;28;20054;-90
2022/05/04 11:43:47;;;;;;;165.32;72.82;;;;;;;17.87;50.08;93322.22;4978261;28;20035;-93
2022/05/04 11:46:13;;;;;;;158.80;72.60;;;;;;;17.88;50.30;93323.69;4978551;28;20582;-89
2022/05/04 11:48:42;;;;;;;151.15;72.55;;;;;;;17.89;50.13;93322.44;4977862;28;20106;-89
2022/05/04 11:51:09;;;;;;;165.82;72.28;;;;;;;17.91;50.28;93319.22;4956690;28;20086;-95